createdAt,value
2022-11-20T00:01:08.869Z,101393.91
2022-11-20T00:03:37.308Z,101395.69
2022-11-20T00:06:07.317Z,101390.03
2022-11-20T00:08:35.588Z,101394.97
2022-11-20T00:11:06.238Z,101395.13
2022-11-20T00:13:34.336Z,101398.16
2022-11-20T00:16:03.555Z,101385.13
2022-11-20T00:18:36.755Z,101390.16
2022-11-20T00:21:14.709Z,101394.91
2022-11-20T00:23:49.136Z,101400.44
2022-11-20T00:26:32.211Z,101395.72
2022-11-20T00:29:02.385Z,101397.69
2022-11-20T00:31:36.773Z,101394.41
2022-11-20T00:34:13.352Z,101388.97
2022-11-20T00:36:58.313Z,101380.06
2022-11-20T00:39:28.875Z,101381.84
2022-11-20T00:41:57.283Z,101383.34
2022-11-20T00:44:32.660Z,101387.44
2022-11-20T00:47:12.095Z,101388.38
2022-11-20T00:49:45.402Z,101388.00
2022-11-20T00:52:21.035Z,101389.19
2022-11-20T00:57:49.353Z,101388.13
2022-11-20T01:00:19.476Z,101387.16
2022-11-20T01:02:47.927Z,101382.88
2022-11-20T01:05:17.673Z,101386.19
2022-11-20T01:07:45.768Z,101377.31
2022-11-20T01:10:16.503Z,101372.72
2022-11-20T01:13:14.202Z,101367.41
2022-11-20T01:15:45.962Z,101372.25
2022-11-20T01:18:23.720Z,101369.56
2022-11-20T01:20:56.739Z,101364.94
2022-11-20T01:23:28.819Z,101362.47
2022-11-20T01:26:02.441Z,101364.94
2022-11-20T01:28:33.163Z,101357.75
2022-11-20T01:31:02.216Z,101365.16
2022-11-20T01:33:30.770Z,101360.78
2022-11-20T01:36:07.960Z,101353.88
2022-11-20T01:38:46.184Z,101345.44
2022-11-20T01:41:35.636Z,101339.66
2022-11-20T01:44:05.131Z,101342.50
2022-11-20T01:46:39.132Z,101340.63
2022-11-20T01:49:12.984Z,101343.31
2022-11-20T01:51:57.409Z,101336.63
2022-11-20T01:54:36.618Z,101335.44
2022-11-20T01:57:11.818Z,101329.03
2022-11-20T01:59:48.963Z,101330.59
2022-11-20T02:02:24.257Z,101336.81
2022-11-20T02:04:56.920Z,101327.28
2022-11-20T02:07:26.974Z,101328.38
2022-11-20T02:09:58.765Z,101320.38
2022-11-20T02:12:44.709Z,101307.38
2022-11-20T02:15:12.891Z,101303.91
2022-11-20T02:17:40.903Z,101299.31
2022-11-20T02:20:10.382Z,101305.72
2022-11-20T02:22:46.102Z,101300.94
2022-11-20T02:25:16.666Z,101307.09
2022-11-20T02:27:45.183Z,101304.03
2022-11-20T02:30:13.812Z,101304.03
2022-11-20T02:32:41.939Z,101301.47
2022-11-20T02:35:31.521Z,101304.66
2022-11-20T02:38:03.403Z,101299.75
2022-11-20T02:40:32.884Z,101309.56
2022-11-20T02:43:00.918Z,101313.13
2022-11-20T02:45:28.945Z,101303.06
2022-11-20T02:47:56.917Z,101304.03
2022-11-20T02:50:25.133Z,101304.56
2022-11-20T02:52:53.028Z,101293.63
2022-11-20T02:55:21.317Z,101287.25
2022-11-20T02:57:50.679Z,101288.69
2022-11-20T03:00:18.928Z,101284.75
2022-11-20T03:02:46.964Z,101288.53
2022-11-20T03:05:15.057Z,101289.84
2022-11-20T03:07:43.046Z,101284.72
2022-11-20T03:10:11.633Z,101284.63
2022-11-20T03:12:39.577Z,101287.06
2022-11-20T03:15:10.703Z,101283.28
2022-11-20T03:17:38.719Z,101281.75
2022-11-20T03:20:08.051Z,101279.03
2022-11-20T03:22:36.072Z,101272.97
2022-11-20T03:25:04.180Z,101266.47
2022-11-20T03:27:34.716Z,101267.56
2022-11-20T03:30:03.355Z,101257.06
2022-11-20T03:32:32.673Z,101261.91
2022-11-20T03:35:00.664Z,101256.50
2022-11-20T03:37:28.680Z,101255.38
2022-11-20T03:39:56.778Z,101239.09
2022-11-20T03:42:42.304Z,101244.34
2022-11-20T03:45:11.192Z,101241.69
2022-11-20T03:47:41.256Z,101239.19
2022-11-20T03:50:10.434Z,101240.22
2022-11-20T03:52:38.423Z,101235.38
2022-11-20T03:55:07.040Z,101240.69
2022-11-20T03:57:35.604Z,101235.81
2022-11-20T04:00:04.165Z,101226.25
2022-11-20T04:02:32.652Z,101222.81
2022-11-20T04:05:01.998Z,101230.06
2022-11-20T04:07:29.982Z,101222.59
2022-11-20T04:09:58.000Z,101217.41
2022-11-20T04:12:26.149Z,101211.81
2022-11-20T04:14:54.038Z,101212.50
2022-11-20T04:17:22.013Z,101219.00
2022-11-20T04:19:49.882Z,101217.41
2022-11-20T04:22:19.192Z,101222.03
2022-11-20T04:24:47.157Z,101218.09
2022-11-20T04:27:15.216Z,101215.41
2022-11-20T04:29:43.613Z,101220.06
2022-11-20T04:32:11.773Z,101217.88
2022-11-20T04:34:39.727Z,101211.38
2022-11-20T04:37:07.755Z,101208.44
2022-11-20T04:39:37.005Z,101211.72
2022-11-20T04:42:22.845Z,101200.81
2022-11-20T04:44:50.918Z,101202.16
2022-11-20T04:47:18.829Z,101198.72
2022-11-20T04:49:46.811Z,101196.88
2022-11-20T04:52:15.398Z,101195.03
2022-11-20T04:54:44.767Z,101190.88
2022-11-20T04:57:14.872Z,101183.78
2022-11-20T04:59:43.614Z,101184.88
2022-11-20T05:02:12.637Z,101176.50
2022-11-20T05:04:40.513Z,101185.13
2022-11-20T05:07:08.473Z,101178.34
2022-11-20T05:09:36.374Z,101177.63
2022-11-20T05:12:06.024Z,101175.53
2022-11-20T05:14:33.888Z,101179.13
2022-11-20T05:17:01.994Z,101181.78
2022-11-20T05:19:29.909Z,101179.72
2022-11-20T05:21:57.809Z,101177.59
2022-11-20T05:24:25.827Z,101173.13
2022-11-20T05:26:53.862Z,101177.78
2022-11-20T05:29:23.482Z,101177.25
2022-11-20T05:31:51.486Z,101170.88
2022-11-20T05:34:19.513Z,101168.78
2022-11-20T05:36:47.355Z,101164.41
2022-11-20T05:39:15.438Z,101164.03
2022-11-20T05:41:43.399Z,101158.66
2022-11-20T05:44:13.262Z,101151.03
2022-11-20T05:46:42.492Z,101149.69
2022-11-20T05:49:10.882Z,101147.38
2022-11-20T05:51:38.988Z,101150.03
2022-11-20T05:54:07.003Z,101147.09
2022-11-20T05:56:34.978Z,101145.66
2022-11-20T05:59:03.111Z,101143.56
2022-11-20T06:01:31.064Z,101140.50
2022-11-20T06:04:00.515Z,101149.19
2022-11-20T06:06:28.607Z,101147.25
2022-11-20T06:08:56.681Z,101148.94
2022-11-20T06:11:24.775Z,101141.97
2022-11-20T06:13:53.493Z,101150.81
2022-11-20T06:16:22.793Z,101140.28
2022-11-20T06:18:51.440Z,101143.69
2022-11-20T06:21:22.690Z,101146.50
2022-11-20T06:23:52.138Z,101142.72
2022-11-20T06:26:23.569Z,101154.63
2022-11-20T06:28:52.768Z,101148.53
2022-11-20T06:31:22.672Z,101151.94
2022-11-20T06:33:51.422Z,101147.41
2022-11-20T06:36:23.538Z,101152.09
2022-11-20T06:38:52.142Z,101143.50
2022-11-20T06:41:21.888Z,101148.53
2022-11-20T06:43:50.224Z,101147.44
2022-11-20T06:46:20.291Z,101146.06
2022-11-20T06:48:48.911Z,101144.00
2022-11-20T06:51:17.603Z,101137.38
2022-11-20T06:53:47.535Z,101138.97
2022-11-20T06:56:15.792Z,101136.38
2022-11-20T06:58:43.763Z,101139.84
2022-11-20T07:01:14.510Z,101134.56
2022-11-20T07:03:43.680Z,101136.38
2022-11-20T07:06:12.286Z,101142.41
2022-11-20T07:08:40.365Z,101134.91
2022-11-20T07:11:10.252Z,101143.28
2022-11-20T07:13:38.195Z,101137.63
2022-11-20T07:16:09.153Z,101133.31
2022-11-20T07:18:37.978Z,101131.22
2022-11-20T07:21:08.079Z,101148.16
2022-11-20T07:23:36.432Z,101140.28
2022-11-20T07:26:05.883Z,101147.81
2022-11-20T07:28:35.949Z,101139.94
2022-11-20T07:31:05.799Z,101148.53
2022-11-20T07:33:34.071Z,101151.38
2022-11-20T07:36:02.570Z,101153.34
2022-11-20T07:38:31.086Z,101151.72
2022-11-20T07:41:02.451Z,101149.16
2022-11-20T07:43:30.970Z,101155.59
2022-11-20T07:46:02.103Z,101150.63
2022-11-20T07:48:30.284Z,101150.25
2022-11-20T07:50:59.053Z,101149.88
2022-11-20T07:53:27.217Z,101147.91
2022-11-20T07:55:55.161Z,101143.03
2022-11-20T07:58:23.971Z,101150.50
2022-11-20T08:00:52.143Z,101149.03
2022-11-20T08:03:25.020Z,101148.16
2022-11-20T08:05:53.892Z,101147.31
2022-11-20T08:08:22.101Z,101151.22
2022-11-20T08:10:50.218Z,101147.31
2022-11-20T08:13:35.820Z,101153.31
2022-11-20T08:16:03.839Z,101148.16
2022-11-20T08:18:33.405Z,101141.91
2022-11-20T08:21:05.276Z,101149.25
2022-11-20T08:23:33.672Z,101154.50
2022-11-20T08:26:01.655Z,101153.16
2022-11-20T08:28:29.732Z,101151.94
2022-11-20T08:31:00.889Z,101151.69
2022-11-20T08:33:29.301Z,101150.47
2022-11-20T08:36:02.537Z,101152.09
2022-11-20T08:38:30.804Z,101158.00
2022-11-20T08:41:17.395Z,101163.50
2022-11-20T08:43:45.384Z,101165.34
2022-11-20T08:46:13.707Z,101165.34
2022-11-20T08:48:42.165Z,101162.75
2022-11-20T08:51:12.017Z,101159.34
2022-11-20T08:53:40.249Z,101158.22
2022-11-20T08:56:08.994Z,101150.13
2022-11-20T08:59:01.795Z,101147.16
2022-11-20T09:01:25.953Z,101143.13
2022-11-20T09:03:54.373Z,101145.31
2022-11-20T09:06:23.892Z,101148.03
2022-11-20T09:08:54.700Z,101146.44
2022-11-20T09:11:23.054Z,101146.19
2022-11-20T09:13:51.449Z,101133.19
2022-11-20T09:16:19.523Z,101134.66
2022-11-20T09:18:53.949Z,101139.44
2022-11-20T09:21:31.458Z,101132.94
2022-11-20T09:23:59.691Z,101138.47
2022-11-20T09:26:27.579Z,101144.50
2022-11-20T09:28:58.149Z,101131.97
2022-11-20T09:31:27.591Z,101138.44
2022-11-20T09:33:55.844Z,101135.28
2022-11-20T09:36:23.812Z,101130.56
2022-11-20T09:38:53.331Z,101128.84
2022-11-20T09:41:38.370Z,101127.50
2022-11-20T09:44:21.117Z,101124.34
2022-11-20T09:47:01.632Z,101124.81
2022-11-20T09:49:52.239Z,101119.66
2022-11-20T09:52:36.984Z,101119.78
2022-11-20T09:55:19.847Z,101116.34
2022-11-20T09:58:02.911Z,101109.09
2022-11-20T10:00:48.961Z,101112.16
2022-11-20T10:03:36.417Z,101122.22
2022-11-20T10:06:16.954Z,101118.91
2022-11-20T10:08:59.088Z,101111.53
2022-11-20T10:11:47.857Z,101108.34
2022-11-20T10:14:28.368Z,101111.28
2022-11-20T10:17:09.609Z,101108.47
2022-11-20T10:20:05.631Z,101111.16
2022-11-20T10:22:53.901Z,101104.53
2022-11-20T10:25:24.226Z,101104.16
2022-11-20T10:28:17.631Z,101100.00
2022-11-20T10:30:48.504Z,101103.56
2022-11-20T10:33:21.740Z,101097.94
2022-11-20T10:35:57.540Z,101091.84
2022-11-20T10:38:42.589Z,101082.38
2022-11-20T10:41:35.948Z,101075.41
2022-11-20T10:44:43.661Z,101068.16
2022-11-20T10:47:25.252Z,101060.06
2022-11-20T10:50:22.461Z,101065.34
2022-11-20T10:56:29.968Z,101047.91
2022-11-20T11:02:11.434Z,101049.28
2022-11-20T11:05:01.767Z,101051.34
2022-11-20T11:07:43.535Z,101045.34
2022-11-20T11:10:25.438Z,101036.41
2022-11-20T11:12:54.406Z,101037.16
2022-11-20T11:15:31.365Z,101040.44
2022-11-20T11:18:00.957Z,101038.38
2022-11-20T11:20:28.954Z,101026.97
2022-11-20T11:22:59.016Z,101024.38
2022-11-20T11:25:31.034Z,101024.91
2022-11-20T11:28:13.050Z,101031.16
2022-11-20T11:30:54.154Z,101027.22
2022-11-20T11:33:41.720Z,101024.41
2022-11-20T11:36:30.685Z,101018.28
2022-11-20T11:39:36.583Z,101006.00
2022-11-20T11:45:25.900Z,101001.47
2022-11-20T11:48:04.906Z,100989.31
2022-11-20T11:50:59.525Z,100992.66
2022-11-20T11:53:36.177Z,100993.13
2022-11-20T11:56:15.299Z,100988.94
2022-11-20T11:58:52.884Z,100984.41
2022-11-20T12:01:32.969Z,100977.78
2022-11-20T12:04:07.619Z,100984.34
2022-11-20T12:06:40.209Z,100983.81
2022-11-20T12:09:13.899Z,100980.03
2022-11-20T12:11:50.518Z,100973.38
2022-11-20T12:14:24.998Z,100973.75
2022-11-20T12:17:09.824Z,100968.09
2022-11-20T12:19:57.464Z,100966.84
2022-11-20T12:23:02.921Z,100958.53
2022-11-20T12:26:00.771Z,100951.28
2022-11-20T12:29:06.201Z,100951.78
2022-11-20T12:32:07.436Z,100952.47
2022-11-20T12:35:28.771Z,100938.91
2022-11-20T12:38:34.101Z,100951.44
2022-11-20T12:41:10.993Z,100954.41
2022-11-20T12:44:06.144Z,100949.59
2022-11-20T12:46:49.368Z,100947.47
2022-11-20T12:49:40.034Z,100947.06
2022-11-20T12:52:22.105Z,100946.38
2022-11-20T12:55:13.163Z,100944.63
2022-11-20T12:57:50.685Z,100936.59
2022-11-20T13:00:21.949Z,100940.22
2022-11-20T13:03:15.505Z,100931.13
2022-11-20T13:05:55.232Z,100932.13
2022-11-20T13:08:35.939Z,100929.03
2022-11-20T13:11:28.544Z,100920.63
2022-11-20T13:14:31.909Z,100917.38
2022-11-20T13:17:48.582Z,100909.88
2022-11-20T13:20:40.222Z,100902.41
2022-11-20T13:23:50.418Z,100893.94
2022-11-20T13:26:35.722Z,100880.56
2022-11-20T13:29:24.505Z,100879.88
2022-11-20T13:32:11.973Z,100881.31
2022-11-20T13:34:43.355Z,100869.88
2022-11-20T13:37:38.758Z,100865.22
2022-11-20T13:40:41.366Z,100866.09
2022-11-20T13:43:19.979Z,100869.22
2022-11-20T13:45:58.045Z,100871.47
2022-11-20T13:48:28.577Z,100873.66
2022-11-20T13:51:08.624Z,100865.25
2022-11-20T13:54:05.119Z,100859.69
2022-11-20T13:56:49.465Z,100845.47
2022-11-20T13:59:40.141Z,100845.47
2022-11-20T14:02:34.998Z,100838.91
2022-11-20T14:05:42.883Z,100840.91
2022-11-20T14:08:41.494Z,100828.09
2022-11-20T14:14:21.650Z,100828.13
2022-11-20T14:17:01.615Z,100816.13
2022-11-20T14:19:40.537Z,100821.84
2022-11-20T14:22:24.117Z,100817.00
2022-11-20T14:25:11.534Z,100812.00
2022-11-20T14:27:54.889Z,100812.16
2022-11-20T14:30:49.904Z,100803.59
2022-11-20T14:33:21.153Z,100792.19
2022-11-20T14:35:51.953Z,100799.88
2022-11-20T14:38:26.073Z,100798.72
2022-11-20T14:40:54.984Z,100787.06
2022-11-20T14:43:26.399Z,100787.34
2022-11-20T14:46:06.048Z,100780.38
2022-11-20T14:48:49.433Z,100782.94
2022-11-20T14:51:43.950Z,100774.53
2022-11-20T14:54:34.520Z,100781.94
2022-11-20T14:57:38.142Z,100774.41
2022-11-20T15:00:11.120Z,100771.56
2022-11-20T15:02:43.835Z,100771.81
2022-11-20T15:05:16.594Z,100766.56
2022-11-20T15:07:48.248Z,100763.69
2022-11-20T15:10:25.432Z,100767.25
2022-11-20T15:12:55.358Z,100764.84
2022-11-20T15:15:30.316Z,100768.00
2022-11-20T15:18:00.388Z,100768.13
2022-11-20T15:20:34.304Z,100770.56
2022-11-20T15:23:04.132Z,100766.41
2022-11-20T15:25:33.658Z,100759.31
2022-11-20T15:28:02.325Z,100746.06
2022-11-20T15:30:31.576Z,100748.63
2022-11-20T15:33:31.374Z,100744.19
2022-11-20T15:36:35.651Z,100743.34
2022-11-20T15:39:26.585Z,100736.94
2022-11-20T15:42:21.853Z,100733.25
2022-11-20T15:44:56.200Z,100731.09
2022-11-20T15:47:53.906Z,100732.22
2022-11-20T15:50:45.460Z,100723.00
2022-11-20T15:53:43.077Z,100721.97
2022-11-20T15:56:20.268Z,100710.84
2022-11-20T15:59:13.078Z,100708.16
2022-11-20T16:02:02.285Z,100702.34
2022-11-20T16:04:48.731Z,100700.22
2022-11-20T16:07:27.015Z,100700.78
2022-11-20T16:10:10.764Z,100691.34
2022-11-20T16:12:57.882Z,100701.91
2022-11-20T16:15:43.789Z,100698.19
2022-11-20T16:18:13.511Z,100705.16
2022-11-20T16:20:42.360Z,100703.59
2022-11-20T16:23:26.442Z,100701.47
2022-11-20T16:26:18.718Z,100706.31
2022-11-20T16:29:16.774Z,100703.75
2022-11-20T16:32:12.230Z,100703.19
2022-11-20T16:35:05.130Z,100704.47
2022-11-20T16:38:27.355Z,100700.91
2022-11-20T16:41:24.255Z,100696.47
2022-11-20T16:44:20.021Z,100701.47
2022-11-20T16:47:10.591Z,100685.94
2022-11-20T16:50:16.185Z,100681.13
2022-11-20T16:53:11.112Z,100692.94
2022-11-20T16:55:59.038Z,100679.56
2022-11-20T16:59:03.309Z,100682.25
2022-11-20T17:01:35.964Z,100686.97
2022-11-20T17:04:07.507Z,100674.44
2022-11-20T17:06:37.579Z,100675.28
2022-11-20T17:09:06.991Z,100669.59
2022-11-20T17:11:57.280Z,100666.72
2022-11-20T17:15:15.437Z,100672.88
2022-11-20T17:18:17.728Z,100673.16
2022-11-20T17:21:34.539Z,100672.59
2022-11-20T17:24:46.782Z,100664.19
2022-11-20T17:28:15.589Z,100661.78
2022-11-20T17:34:13.653Z,100654.34
2022-11-20T17:37:18.500Z,100646.81
2022-11-20T17:39:52.588Z,100645.97
2022-11-20T17:43:17.570Z,100644.69
2022-11-20T17:49:22.755Z,100639.97
2022-11-20T17:51:54.233Z,100625.75
2022-11-20T17:54:22.984Z,100623.91
2022-11-20T17:57:08.868Z,100624.91
2022-11-20T17:59:41.148Z,100618.19
2022-11-20T18:02:21.759Z,100618.91
2022-11-20T18:08:29.186Z,100597.13
2022-11-20T18:11:20.586Z,100597.69
2022-11-20T18:18:26.098Z,100595.81
2022-11-20T18:21:18.589Z,100594.53
2022-11-20T18:23:57.937Z,100607.06
2022-11-20T18:26:46.852Z,100602.94
2022-11-20T18:29:27.297Z,100604.22
2022-11-20T18:32:15.588Z,100603.78
2022-11-20T18:35:14.559Z,100603.25
2022-11-20T18:38:09.650Z,100600.09
2022-11-20T18:41:11.401Z,100593.44
2022-11-20T18:43:58.134Z,100592.56
2022-11-20T18:46:35.868Z,100586.03
2022-11-20T18:49:03.816Z,100589.00
2022-11-20T18:51:31.971Z,100580.19
2022-11-20T18:54:01.417Z,100576.50
2022-11-20T18:56:29.513Z,100580.75
2022-11-20T18:59:21.526Z,100576.91
2022-11-20T19:02:04.160Z,100582.47
2022-11-20T19:04:53.831Z,100585.59
2022-11-20T19:08:07.919Z,100578.63
2022-11-20T19:10:59.207Z,100577.34
2022-11-20T19:13:57.149Z,100583.44
2022-11-20T19:16:29.874Z,100587.03
2022-11-20T19:19:05.251Z,100597.41
2022-11-20T19:21:39.205Z,100584.88
2022-11-20T19:24:16.062Z,100590.13
2022-11-20T19:26:57.671Z,100587.44
2022-11-20T19:29:51.018Z,100585.56
2022-11-20T19:32:19.157Z,100586.28
2022-11-20T19:34:47.412Z,100583.72
2022-11-20T19:37:15.499Z,100581.47
2022-11-20T19:39:43.983Z,100578.88
2022-11-20T19:42:13.556Z,100579.31
2022-11-20T19:44:43.424Z,100579.75
2022-11-20T19:47:19.563Z,100573.47
2022-11-20T19:50:12.563Z,100571.19
2022-11-20T19:52:59.079Z,100578.03
2022-11-20T19:55:58.802Z,100589.56
2022-11-20T20:01:46.010Z,100599.84
2022-11-20T20:04:52.572Z,100597.13
2022-11-20T20:07:36.746Z,100596.97
2022-11-20T20:10:25.005Z,100605.38
2022-11-20T20:13:02.805Z,100595.13
2022-11-20T20:15:41.203Z,100606.06
2022-11-20T20:18:28.528Z,100601.69
2022-11-20T20:21:24.087Z,100603.38
2022-11-20T20:23:55.426Z,100610.94
2022-11-20T20:26:24.818Z,100610.38
2022-11-20T20:28:52.919Z,100600.41
2022-11-20T20:31:25.599Z,100595.56
2022-11-20T20:34:06.186Z,100585.56
2022-11-20T20:36:47.897Z,100581.56
2022-11-20T20:39:37.660Z,100578.72
2022-11-20T20:42:22.056Z,100589.41
2022-11-20T20:45:15.035Z,100583.72
2022-11-20T20:48:31.893Z,100590.41
2022-11-20T20:51:18.787Z,100578.59
2022-11-20T20:54:10.759Z,100581.16
2022-11-20T20:57:24.278Z,100576.16
2022-11-20T21:00:08.256Z,100584.31
2022-11-20T21:03:03.719Z,100580.59
2022-11-20T21:05:48.331Z,100587.13
2022-11-20T21:08:40.313Z,100582.16
2022-11-20T21:11:35.428Z,100587.69
2022-11-20T21:14:03.507Z,100580.44
2022-11-20T21:16:41.158Z,100589.84
2022-11-20T21:19:09.229Z,100589.00
2022-11-20T21:22:06.175Z,100579.59
2022-11-20T21:24:53.683Z,100585.28
2022-11-20T21:28:03.505Z,100583.34
2022-11-20T21:30:41.299Z,100582.88
2022-11-20T21:33:18.231Z,100578.63
2022-11-20T21:36:11.337Z,100574.75
2022-11-20T21:39:13.901Z,100578.13
2022-11-20T21:42:16.741Z,100578.75
2022-11-20T21:45:30.773Z,100583.16
2022-11-20T21:48:38.258Z,100576.31
2022-11-20T21:51:19.938Z,100575.63
2022-11-20T21:53:51.497Z,100584.44
2022-11-20T21:56:20.968Z,100587.44
2022-11-20T21:58:50.300Z,100584.63
2022-11-20T22:01:21.329Z,100587.03
2022-11-20T22:03:50.421Z,100583.03
2022-11-20T22:06:18.908Z,100580.47
2022-11-20T22:08:46.868Z,100580.91
2022-11-20T22:11:24.635Z,100577.16
2022-11-20T22:14:26.346Z,100589.72
2022-11-20T22:20:50.406Z,100597.25
2022-11-20T22:23:32.703Z,100594.25
2022-11-20T22:26:38.651Z,100591.72
2022-11-20T22:29:26.186Z,100595.97
2022-11-20T22:35:18.532Z,100607.50
2022-11-20T22:38:18.014Z,100612.63
2022-11-20T22:41:14.707Z,100606.91
2022-11-20T22:44:12.746Z,100606.22
2022-11-20T22:47:00.194Z,100614.50
2022-11-20T22:49:52.674Z,100614.91
2022-11-20T22:52:22.463Z,100616.22
2022-11-20T22:54:50.594Z,100624.19
2022-11-20T22:57:18.558Z,100619.19
2022-11-20T22:59:46.597Z,100618.19
2022-11-20T23:02:16.291Z,100615.34
2022-11-20T23:04:44.190Z,100607.50
2022-11-20T23:07:12.197Z,100617.34
2022-11-20T23:10:07.001Z,100611.47
2022-11-20T23:12:41.071Z,100614.47
2022-11-20T23:15:36.249Z,100617.06
2022-11-20T23:18:20.386Z,100622.03
2022-11-20T23:20:58.807Z,100623.03
2022-11-20T23:23:59.366Z,100612.50
2022-11-20T23:26:39.412Z,100619.31
2022-11-20T23:29:15.210Z,100617.06
2022-11-20T23:31:49.427Z,100621.03
2022-11-20T23:37:11.701Z,100618.91
2022-11-20T23:39:45.897Z,100622.91
2022-11-20T23:42:14.625Z,100628.75
2022-11-20T23:44:42.648Z,100625.03
2022-11-20T23:47:10.877Z,100620.63
2022-11-20T23:49:40.521Z,100626.88
2022-11-20T23:52:08.801Z,100631.00
2022-11-20T23:54:36.764Z,100627.31
